createdAt,value
2022-09-10T00:01:25.686Z,2.00
2022-09-10T00:03:54.854Z,2.15
2022-09-10T00:06:26.254Z,1.95
2022-09-10T00:08:57.396Z,1.98
2022-09-10T00:11:26.502Z,1.98
2022-09-10T00:13:54.036Z,2.13
2022-09-10T00:16:22.248Z,2.05
2022-09-10T00:18:50.241Z,2.03
2022-09-10T00:21:21.013Z,2.30
2022-09-10T00:23:49.164Z,2.10
2022-09-10T00:26:21.934Z,2.47
2022-09-10T00:28:50.935Z,2.05
2022-09-10T00:31:19.604Z,2.30
2022-09-10T00:33:47.124Z,2.72
2022-09-10T00:36:15.924Z,2.65
2022-09-10T00:38:43.843Z,2.40
2022-09-10T00:41:11.694Z,2.42
2022-09-10T00:43:56.480Z,2.20
2022-09-10T00:46:43.538Z,2.40
2022-09-10T00:49:20.479Z,2.67
2022-09-10T00:51:50.159Z,2.47
2022-09-10T00:54:19.412Z,2.67
2022-09-10T00:56:48.037Z,2.30
2022-09-10T00:59:18.205Z,2.65
2022-09-10T01:01:46.168Z,2.72
2022-09-10T01:04:14.282Z,2.38
2022-09-10T01:06:43.660Z,2.50
2022-09-10T01:09:11.635Z,2.17
2022-09-10T01:11:38.930Z,2.25
2022-09-10T01:14:18.086Z,2.63
2022-09-10T01:17:14.875Z,2.30
2022-09-10T01:20:04.480Z,2.70
2022-09-10T01:22:47.638Z,2.22
2022-09-10T01:25:35.288Z,2.55
2022-09-10T01:28:08.656Z,2.33
2022-09-10T01:30:44.047Z,2.30
2022-09-10T01:33:37.554Z,2.58
2022-09-10T01:36:12.750Z,2.83
2022-09-10T01:38:43.936Z,2.92
2022-09-10T01:41:13.755Z,2.50
2022-09-10T01:43:43.216Z,2.57
2022-09-10T01:46:37.345Z,1.95
2022-09-10T01:49:36.979Z,2.22
2022-09-10T01:52:19.133Z,1.88
2022-09-10T01:55:03.914Z,2.20
2022-09-10T01:57:55.506Z,2.38
2022-09-10T02:00:36.264Z,2.40
2022-09-10T02:03:11.406Z,2.47
2022-09-10T02:05:42.503Z,2.50
2022-09-10T02:08:33.854Z,2.28
2022-09-10T02:11:06.840Z,2.45
2022-09-10T02:13:38.065Z,2.33
2022-09-10T02:16:25.520Z,2.22
2022-09-10T02:18:53.110Z,2.40
2022-09-10T02:21:20.744Z,2.58
2022-09-10T02:23:57.426Z,2.55
2022-09-10T02:26:26.038Z,2.58
2022-09-10T02:28:54.639Z,2.40
2022-09-10T02:31:22.761Z,2.35
2022-09-10T02:33:51.371Z,2.20
2022-09-10T02:36:19.077Z,2.13
2022-09-10T02:38:46.496Z,2.00
2022-09-10T02:41:15.634Z,1.90
2022-09-10T02:43:43.049Z,2.05
2022-09-10T02:46:11.073Z,2.40
2022-09-10T02:48:40.094Z,1.98
2022-09-10T02:51:08.961Z,1.92
2022-09-10T02:53:37.966Z,1.85
2022-09-10T02:56:07.782Z,1.70
2022-09-10T02:58:36.626Z,1.67
2022-09-10T03:01:09.197Z,1.92
2022-09-10T03:03:37.490Z,2.03
2022-09-10T03:06:05.230Z,2.15
2022-09-10T03:08:32.669Z,1.77
2022-09-10T03:10:59.986Z,1.70
2022-09-10T03:13:28.680Z,1.80
2022-09-10T03:15:59.016Z,1.65
2022-09-10T03:18:27.996Z,2.08
2022-09-10T03:20:55.202Z,1.98
2022-09-10T03:23:23.203Z,1.45
2022-09-10T03:25:50.645Z,1.83
2022-09-10T03:28:24.732Z,1.70
2022-09-10T03:30:52.693Z,1.60
2022-09-10T03:33:21.418Z,1.60
2022-09-10T03:35:48.858Z,1.58
2022-09-10T03:38:16.123Z,1.55
2022-09-10T03:40:43.399Z,1.73
2022-09-10T03:43:10.780Z,1.60
2022-09-10T03:45:38.578Z,1.55
2022-09-10T03:48:06.397Z,1.63
2022-09-10T03:50:34.036Z,1.50
2022-09-10T03:53:04.011Z,1.50
2022-09-10T03:55:31.436Z,1.50
2022-09-10T03:57:59.571Z,1.50
2022-09-10T04:00:27.166Z,2.00
2022-09-10T04:02:55.148Z,1.73
2022-09-10T04:05:22.405Z,1.60
2022-09-10T04:07:50.216Z,1.73
2022-09-10T04:10:19.083Z,1.55
2022-09-10T04:12:46.321Z,1.50
2022-09-10T04:15:13.869Z,1.63
2022-09-10T04:17:41.633Z,1.50
2022-09-10T04:20:10.120Z,1.50
2022-09-10T04:22:38.116Z,1.55
2022-09-10T04:25:05.687Z,1.70
2022-09-10T04:27:33.327Z,1.60
2022-09-10T04:30:00.728Z,1.50
2022-09-10T04:32:28.057Z,1.60
2022-09-10T04:34:55.637Z,1.80
2022-09-10T04:37:22.965Z,1.38
2022-09-10T04:39:51.083Z,1.77
2022-09-10T04:42:20.411Z,1.85
2022-09-10T04:44:49.376Z,1.55
2022-09-10T04:47:17.560Z,1.52
2022-09-10T04:49:44.935Z,1.52
2022-09-10T04:52:13.366Z,1.40
2022-09-10T04:54:40.687Z,1.65
2022-09-10T04:57:08.200Z,1.60
2022-09-10T04:59:36.119Z,1.75
2022-09-10T05:02:03.900Z,1.50
2022-09-10T05:04:31.182Z,1.42
2022-09-10T05:06:59.791Z,1.55
2022-09-10T05:09:31.271Z,1.65
2022-09-10T05:12:01.487Z,1.75
2022-09-10T05:14:33.607Z,1.70
2022-09-10T05:17:01.089Z,2.05
2022-09-10T05:19:30.278Z,1.52
2022-09-10T05:22:03.357Z,1.75
2022-09-10T05:24:34.712Z,1.60
2022-09-10T05:27:11.687Z,1.45
2022-09-10T05:29:39.543Z,1.85
2022-09-10T05:32:09.525Z,1.55
2022-09-10T05:34:36.779Z,1.73
2022-09-10T05:37:05.969Z,1.58
2022-09-10T05:39:34.011Z,1.58
2022-09-10T05:42:02.324Z,1.60
2022-09-10T05:44:29.804Z,1.42
2022-09-10T05:46:57.077Z,1.40
2022-09-10T05:49:24.362Z,1.67
2022-09-10T05:51:51.692Z,1.60
2022-09-10T05:54:19.539Z,1.63
2022-09-10T05:56:46.809Z,1.50
2022-09-10T05:59:14.152Z,1.65
2022-09-10T06:01:46.476Z,1.63
2022-09-10T06:04:13.835Z,1.88
2022-09-10T06:06:41.044Z,1.30
2022-09-10T06:09:11.985Z,1.52
2022-09-10T06:12:02.102Z,1.60
2022-09-10T06:14:31.170Z,1.70
2022-09-10T06:16:58.712Z,1.40
2022-09-10T06:19:29.765Z,1.70
2022-09-10T06:21:57.764Z,1.45
2022-09-10T06:24:26.084Z,1.35
2022-09-10T06:26:57.335Z,1.40
2022-09-10T06:29:25.989Z,1.58
2022-09-10T06:31:53.289Z,1.40
2022-09-10T06:34:20.613Z,1.60
2022-09-10T06:36:49.517Z,1.35
2022-09-10T06:39:18.557Z,1.50
2022-09-10T06:41:51.259Z,2.10
2022-09-10T06:44:37.222Z,1.40
2022-09-10T06:50:02.361Z,1.30
2022-09-10T06:52:32.206Z,1.40
2022-09-10T06:55:04.273Z,1.42
2022-09-10T06:57:37.669Z,1.40
2022-09-10T07:00:05.309Z,1.58
2022-09-10T07:02:33.673Z,1.98
2022-09-10T07:05:01.163Z,1.38
2022-09-10T07:07:30.487Z,2.25
2022-09-10T07:09:58.374Z,1.63
2022-09-10T07:12:28.162Z,1.67
2022-09-10T07:14:55.975Z,1.48
2022-09-10T07:17:23.885Z,1.50
2022-09-10T07:19:51.398Z,1.50
2022-09-10T07:22:25.136Z,1.60
2022-09-10T07:24:54.065Z,1.60
2022-09-10T07:27:29.683Z,1.67
2022-09-10T07:29:58.302Z,1.63
2022-09-10T07:32:25.614Z,1.48
2022-09-10T07:35:01.726Z,1.50
2022-09-10T07:37:31.017Z,1.35
2022-09-10T07:39:58.332Z,1.50
2022-09-10T07:42:26.753Z,1.77
2022-09-10T07:44:54.064Z,1.50
2022-09-10T07:47:21.953Z,1.50
2022-09-10T07:49:49.766Z,1.42
2022-09-10T07:52:18.678Z,1.80
2022-09-10T07:54:50.297Z,1.70
2022-09-10T07:57:17.781Z,1.80
2022-09-10T07:59:45.059Z,1.80
2022-09-10T08:02:16.086Z,1.55
2022-09-10T08:04:49.705Z,1.70
2022-09-10T08:07:17.865Z,1.35
2022-09-10T08:09:46.153Z,1.80
2022-09-10T08:12:17.744Z,1.80
2022-09-10T08:14:46.142Z,1.98
2022-09-10T08:17:13.966Z,1.70
2022-09-10T08:19:44.177Z,1.80
2022-09-10T08:22:13.640Z,1.65
2022-09-10T08:24:47.959Z,1.40
2022-09-10T08:27:17.112Z,1.58
2022-09-10T08:29:45.315Z,2.97
2022-09-10T08:32:13.197Z,1.55
2022-09-10T08:34:41.301Z,1.60
2022-09-10T08:37:10.625Z,1.33
2022-09-10T08:39:39.307Z,1.90
2022-09-10T08:42:30.923Z,1.42
2022-09-10T08:45:05.238Z,1.52
2022-09-10T08:47:53.644Z,1.60
2022-09-10T08:50:47.195Z,1.45
2022-09-10T08:53:43.925Z,1.67
2022-09-10T08:56:16.864Z,1.63
2022-09-10T08:59:03.196Z,1.60
2022-09-10T09:01:43.509Z,1.40
2022-09-10T09:04:36.650Z,1.50
2022-09-10T09:07:13.251Z,1.63
2022-09-10T09:09:42.790Z,1.55
2022-09-10T09:12:15.768Z,1.60
2022-09-10T09:15:17.448Z,1.67
2022-09-10T09:17:58.728Z,1.63
2022-09-10T09:20:48.976Z,1.60
2022-09-10T09:23:20.197Z,1.50
2022-09-10T09:25:52.195Z,1.60
2022-09-10T09:28:47.325Z,1.70
2022-09-10T09:31:42.695Z,1.50
2022-09-10T09:34:37.472Z,1.60
2022-09-10T09:37:18.340Z,1.40
2022-09-10T09:40:16.819Z,1.80
2022-09-10T09:42:56.279Z,2.08
2022-09-10T09:45:35.100Z,1.70
2022-09-10T09:48:04.041Z,2.00
2022-09-10T09:50:35.081Z,1.85
2022-09-10T09:53:02.287Z,1.90
2022-09-10T09:55:41.934Z,1.90
2022-09-10T09:58:21.235Z,2.03
2022-09-10T10:01:03.932Z,2.00
2022-09-10T10:03:53.218Z,2.35
2022-09-10T10:06:47.087Z,1.80
2022-09-10T10:09:29.933Z,1.95
2022-09-10T10:12:04.708Z,2.00
2022-09-10T10:14:32.011Z,2.00
2022-09-10T10:17:00.996Z,1.90
2022-09-10T10:19:31.679Z,2.10
2022-09-10T10:22:20.394Z,2.55
2022-09-10T10:24:49.934Z,1.85
2022-09-10T10:27:20.025Z,1.75
2022-09-10T10:30:00.367Z,2.15
2022-09-10T10:32:49.392Z,1.77
2022-09-10T10:35:23.501Z,1.90
2022-09-10T10:38:25.362Z,1.70
2022-09-10T10:41:11.961Z,1.40
2022-09-10T10:44:14.705Z,1.60
2022-09-10T10:47:09.662Z,1.90
2022-09-10T10:50:03.487Z,2.10
2022-09-10T10:53:05.510Z,1.73
2022-09-10T10:55:40.862Z,1.90
2022-09-10T10:58:10.935Z,1.83
2022-09-10T11:00:46.105Z,1.90
2022-09-10T11:03:22.142Z,2.00
2022-09-10T11:05:56.255Z,2.35
2022-09-10T11:08:31.866Z,2.70
2022-09-10T11:11:06.039Z,3.13
2022-09-10T11:13:43.634Z,1.70
2022-09-10T11:16:26.244Z,1.95
2022-09-10T11:19:15.059Z,2.13
2022-09-10T11:21:52.056Z,1.60
2022-09-10T11:24:57.056Z,1.73
2022-09-10T11:27:33.168Z,1.70
2022-09-10T11:30:05.596Z,2.00
2022-09-10T11:32:53.011Z,1.90
2022-09-10T11:35:35.303Z,1.92
2022-09-10T11:38:22.375Z,1.92
2022-09-10T11:41:24.379Z,2.13
2022-09-10T11:44:12.972Z,2.67
2022-09-10T11:46:50.430Z,2.20
2022-09-10T11:49:23.111Z,2.28
2022-09-10T11:51:51.418Z,2.10
2022-09-10T11:54:29.262Z,2.45
2022-09-10T11:56:59.783Z,2.60
2022-09-10T11:59:54.265Z,2.90
2022-09-10T12:02:29.785Z,2.60
2022-09-10T12:05:35.702Z,3.10
2022-09-10T12:08:28.678Z,2.97
2022-09-10T12:11:15.193Z,2.70
2022-09-10T12:13:45.783Z,2.60
2022-09-10T12:16:35.036Z,2.58
2022-09-10T12:19:08.282Z,3.03
2022-09-10T12:21:51.782Z,2.70
2022-09-10T12:24:36.979Z,2.65
2022-09-10T12:27:06.795Z,2.72
2022-09-10T12:29:40.887Z,2.92
2022-09-10T12:32:08.136Z,3.05
2022-09-10T12:34:37.158Z,3.10
2022-09-10T12:37:04.432Z,3.13
2022-09-10T12:39:32.100Z,3.17
2022-09-10T12:42:23.849Z,3.08
2022-09-10T12:44:51.163Z,3.22
2022-09-10T12:47:18.333Z,3.13
2022-09-10T12:50:04.984Z,3.40
2022-09-10T12:52:35.296Z,3.20
2022-09-10T12:55:11.778Z,3.15
2022-09-10T12:58:05.476Z,3.50
2022-09-10T13:01:01.093Z,3.28
2022-09-10T13:03:30.219Z,3.88
2022-09-10T13:06:02.027Z,3.70
2022-09-10T13:11:02.996Z,3.40
2022-09-10T13:13:33.825Z,4.10
2022-09-10T13:16:03.010Z,3.58
2022-09-10T13:18:33.217Z,4.00
2022-09-10T13:21:23.373Z,3.95
2022-09-10T13:23:52.806Z,4.18
2022-09-10T13:26:29.308Z,4.20
2022-09-10T13:28:57.143Z,4.10
2022-09-10T13:31:31.714Z,4.20
2022-09-10T13:34:14.331Z,4.07
2022-09-10T13:37:18.987Z,4.47
2022-09-10T13:40:10.932Z,4.38
2022-09-10T13:42:42.422Z,3.95
2022-09-10T13:45:12.577Z,4.38
2022-09-10T13:47:49.058Z,4.32
2022-09-10T13:50:23.171Z,4.07
2022-09-10T13:52:55.066Z,4.47
2022-09-10T13:57:56.547Z,4.28
2022-09-10T14:00:32.679Z,4.30
2022-09-10T14:03:01.304Z,4.18
2022-09-10T14:05:31.753Z,4.38
2022-09-10T14:08:11.538Z,4.32
2022-09-10T14:10:55.982Z,4.30
2022-09-10T14:13:32.337Z,4.10
2022-09-10T14:16:01.316Z,3.92
2022-09-10T14:18:37.476Z,4.15
2022-09-10T14:21:05.725Z,4.10
2022-09-10T14:23:33.250Z,3.90
2022-09-10T14:26:23.539Z,4.40
2022-09-10T14:29:22.765Z,3.78
2022-09-10T14:31:50.035Z,4.30
2022-09-10T14:34:35.044Z,4.30
2022-09-10T14:37:33.376Z,4.13
2022-09-10T14:40:19.861Z,3.78
2022-09-10T14:42:49.076Z,3.88
2022-09-10T14:45:47.890Z,3.92
2022-09-10T14:48:32.756Z,4.07
2022-09-10T14:51:12.951Z,3.55
2022-09-10T14:53:41.526Z,4.05
2022-09-10T14:56:36.492Z,3.85
2022-09-10T14:59:04.898Z,3.95
2022-09-10T15:01:32.308Z,3.60
2022-09-10T15:04:00.085Z,3.65
2022-09-10T15:06:27.440Z,3.60
2022-09-10T15:08:58.369Z,3.42
2022-09-10T15:11:27.820Z,3.80
2022-09-10T15:13:56.628Z,3.70
2022-09-10T15:16:23.896Z,3.78
2022-09-10T15:18:51.216Z,3.40
2022-09-10T15:21:18.800Z,3.85
2022-09-10T15:23:48.338Z,3.60
2022-09-10T15:26:15.858Z,3.55
2022-09-10T15:28:43.147Z,3.90
2022-09-10T15:31:11.067Z,3.28
2022-09-10T15:33:38.551Z,3.28
2022-09-10T15:36:06.420Z,2.72
2022-09-10T15:38:33.618Z,2.53
2022-09-10T15:41:11.279Z,2.90
2022-09-10T15:43:45.725Z,2.60
2022-09-10T15:46:14.816Z,2.63
2022-09-10T15:48:43.001Z,2.40
2022-09-10T15:51:15.320Z,2.30
2022-09-10T15:53:43.849Z,2.22
2022-09-10T15:56:13.023Z,2.50
2022-09-10T15:58:41.070Z,2.72
2022-09-10T16:01:13.144Z,2.55
2022-09-10T16:03:47.254Z,2.40
2022-09-10T16:06:15.677Z,2.65
2022-09-10T16:08:47.360Z,3.25
2022-09-10T16:11:14.590Z,3.30
2022-09-10T16:13:41.779Z,3.30
2022-09-10T16:16:12.139Z,3.55
2022-09-10T16:18:39.323Z,3.08
2022-09-10T16:21:12.658Z,3.25
2022-09-10T16:23:41.411Z,2.97
2022-09-10T16:26:11.184Z,3.15
2022-09-10T16:28:38.490Z,3.00
2022-09-10T16:31:18.514Z,3.03
2022-09-10T16:33:48.371Z,2.90
2022-09-10T16:36:17.659Z,2.72
2022-09-10T16:38:44.970Z,2.97
2022-09-10T16:41:14.604Z,2.90
2022-09-10T16:43:42.891Z,3.28
2022-09-10T16:46:12.300Z,2.53
2022-09-10T16:48:41.429Z,2.80
2022-09-10T16:51:18.140Z,2.40
2022-09-10T16:53:48.036Z,2.30
2022-09-10T16:56:16.734Z,2.05
2022-09-10T16:58:47.754Z,2.22
2022-09-10T17:01:15.800Z,2.08
2022-09-10T17:03:45.828Z,2.47
2022-09-10T17:06:23.188Z,2.20
2022-09-10T17:08:51.792Z,2.40
2022-09-10T17:11:20.077Z,2.42
2022-09-10T17:13:48.250Z,3.22
2022-09-10T17:16:33.812Z,3.05
2022-09-10T17:19:14.266Z,3.25
2022-09-10T17:21:51.144Z,3.28
2022-09-10T17:24:21.340Z,3.20
2022-09-10T17:26:49.274Z,2.97
2022-09-10T17:29:19.426Z,2.85
2022-09-10T17:31:47.696Z,3.03
2022-09-10T17:34:16.532Z,2.70
2022-09-10T17:36:52.137Z,2.45
2022-09-10T17:39:20.904Z,2.65
2022-09-10T17:41:48.542Z,2.47
2022-09-10T17:44:16.863Z,2.40
2022-09-10T17:46:45.207Z,2.05
2022-09-10T17:49:16.130Z,2.30
2022-09-10T17:51:43.849Z,2.28
2022-09-10T17:54:11.280Z,2.20
2022-09-10T17:56:38.624Z,2.22
2022-09-10T17:59:06.506Z,2.20
2022-09-10T18:01:37.860Z,2.03
2022-09-10T18:04:06.452Z,2.42
2022-09-10T18:06:36.170Z,2.10
2022-09-10T18:09:04.409Z,2.03
2022-09-10T18:11:35.025Z,2.28
2022-09-10T18:14:02.940Z,2.42
2022-09-10T18:16:33.235Z,2.70
2022-09-10T18:19:12.854Z,2.38
2022-09-10T18:21:42.270Z,2.05
2022-09-10T18:24:24.642Z,2.28
2022-09-10T18:26:56.590Z,2.10
2022-09-10T18:31:57.834Z,2.22
2022-09-10T18:34:28.736Z,2.38
2022-09-10T18:37:01.222Z,2.22
2022-09-10T18:39:31.025Z,2.42
2022-09-10T18:42:00.815Z,2.10
2022-09-10T18:44:30.856Z,2.28
2022-09-10T18:46:58.466Z,2.53
2022-09-10T18:49:26.843Z,2.25
2022-09-10T18:51:55.975Z,2.80
2022-09-10T18:54:24.430Z,2.63
2022-09-10T18:56:53.466Z,2.25
2022-09-10T18:59:23.374Z,2.42
2022-09-10T19:01:53.523Z,2.25
2022-09-10T19:04:27.153Z,2.45
2022-09-10T19:06:56.060Z,2.50
2022-09-10T19:09:24.303Z,1.98
2022-09-10T19:11:53.554Z,2.40
2022-09-10T19:14:29.519Z,2.30
2022-09-10T19:16:58.113Z,2.15
2022-09-10T19:19:31.931Z,2.38
2022-09-10T19:22:07.348Z,2.40
2022-09-10T19:24:53.987Z,2.13
2022-09-10T19:27:22.130Z,2.45
2022-09-10T19:29:50.009Z,2.00
2022-09-10T19:32:19.876Z,2.67
2022-09-10T19:34:56.615Z,2.38
2022-09-10T19:37:24.463Z,2.80
2022-09-10T19:39:51.792Z,2.63
2022-09-10T19:42:19.206Z,2.60
2022-09-10T19:44:46.522Z,2.65
2022-09-10T19:47:14.073Z,2.45
2022-09-10T19:49:41.368Z,3.70
2022-09-10T19:52:11.146Z,2.50
2022-09-10T19:54:38.912Z,2.90
2022-09-10T19:57:06.172Z,2.40
2022-09-10T19:59:33.418Z,2.42
2022-09-10T20:02:00.798Z,2.65
2022-09-10T20:04:28.732Z,2.30
2022-09-10T20:06:55.988Z,2.50
2022-09-10T20:09:23.369Z,2.67
2022-09-10T20:11:50.614Z,2.17
2022-09-10T20:14:17.904Z,2.45
2022-09-10T20:16:45.866Z,3.03
2022-09-10T20:19:18.356Z,2.45
2022-09-10T20:21:47.657Z,2.60
2022-09-10T20:24:16.051Z,2.20
2022-09-10T20:26:46.442Z,2.00
2022-09-10T20:29:16.623Z,2.50
2022-09-10T20:31:44.824Z,2.10
2022-09-10T20:34:17.711Z,2.90
2022-09-10T20:36:45.237Z,2.95
2022-09-10T20:39:14.419Z,2.70
2022-09-10T20:41:42.749Z,2.60
2022-09-10T20:44:13.170Z,2.30
2022-09-10T20:46:41.752Z,3.22
2022-09-10T20:49:11.617Z,2.83
2022-09-10T20:51:40.529Z,4.53
2022-09-10T20:54:13.556Z,3.67
2022-09-10T20:56:40.945Z,3.22
2022-09-10T20:59:08.272Z,2.97
2022-09-10T21:01:35.732Z,2.95
2022-09-10T21:04:04.249Z,2.95
2022-09-10T21:06:33.230Z,2.92
2022-09-10T21:09:02.231Z,3.35
2022-09-10T21:11:32.045Z,3.45
2022-09-10T21:14:02.128Z,3.67
2022-09-10T21:16:31.913Z,3.72
2022-09-10T21:19:01.930Z,4.30
2022-09-10T21:21:32.016Z,4.18
2022-09-10T21:24:01.965Z,3.55
2022-09-10T21:26:31.931Z,3.88
2022-09-10T21:29:02.472Z,4.15
2022-09-10T21:31:31.132Z,4.22
2022-09-10T21:34:03.163Z,3.50
2022-09-10T21:36:32.689Z,4.10
2022-09-10T21:39:02.335Z,4.32
2022-09-10T21:41:34.207Z,3.55
2022-09-10T21:44:03.786Z,3.90
2022-09-10T21:46:32.305Z,3.70
2022-09-10T21:49:00.001Z,3.97
2022-09-10T21:51:27.411Z,3.80
2022-09-10T21:53:56.488Z,3.90
2022-09-10T21:56:26.036Z,4.00
2022-09-10T21:58:54.361Z,3.97
2022-09-10T22:01:24.900Z,4.10
2022-09-10T22:03:55.204Z,4.28
2022-09-10T22:06:24.956Z,4.95
2022-09-10T22:09:14.367Z,4.43
2022-09-10T22:11:47.619Z,4.25
2022-09-10T22:14:17.611Z,4.18
2022-09-10T22:16:47.980Z,4.70
2022-09-10T22:19:18.378Z,4.18
2022-09-10T22:21:46.436Z,4.20
2022-09-10T22:24:15.309Z,4.50
2022-09-10T22:26:44.597Z,3.67
2022-09-10T22:29:15.442Z,3.90
2022-09-10T22:31:42.963Z,4.07
2022-09-10T22:34:15.114Z,3.88
2022-09-10T22:39:19.010Z,4.32
2022-09-10T22:41:47.678Z,3.95
2022-09-10T22:44:15.048Z,4.45
2022-09-10T22:46:43.086Z,4.00
2022-09-10T22:49:10.538Z,3.78
2022-09-10T22:51:41.160Z,3.83
2022-09-10T22:54:10.830Z,4.05
2022-09-10T22:56:39.886Z,3.78
2022-09-10T22:59:07.769Z,3.75
2022-09-10T23:01:37.668Z,4.15
2022-09-10T23:04:06.557Z,3.95
2022-09-10T23:06:36.960Z,3.55
2022-09-10T23:09:14.724Z,4.30
2022-09-10T23:11:42.546Z,4.75
2022-09-10T23:14:18.039Z,3.88
2022-09-10T23:16:48.567Z,4.20
2022-09-10T23:19:24.320Z,5.05
2022-09-10T23:21:54.545Z,3.70
2022-09-10T23:24:24.574Z,3.70
2022-09-10T23:26:52.273Z,3.50
2022-09-10T23:29:20.654Z,4.18
2022-09-10T23:31:48.078Z,3.58
2022-09-10T23:34:18.272Z,3.97
2022-09-10T23:36:47.529Z,4.10
2022-09-10T23:39:21.131Z,3.88
2022-09-10T23:41:50.011Z,3.95
2022-09-10T23:44:17.855Z,3.65
2022-09-10T23:46:45.368Z,3.88
2022-09-10T23:49:12.936Z,4.10
2022-09-10T23:51:40.636Z,4.00
2022-09-10T23:54:09.459Z,4.25
2022-09-10T23:56:37.227Z,3.78
2022-09-10T23:59:04.813Z,3.88
